createdAt,value
2023-05-24T00:04:37.739Z,62.21
2023-05-24T00:09:39.228Z,62.17
2023-05-24T00:14:40.699Z,62.48
2023-05-24T00:19:42.782Z,62.69
2023-05-24T00:24:44.264Z,62.47
2023-05-24T00:29:45.887Z,62.99
2023-05-24T00:34:47.489Z,62.90
2023-05-24T00:39:48.942Z,62.52
2023-05-24T00:44:50.559Z,63.02
2023-05-24T00:49:52.041Z,62.96
2023-05-24T00:54:53.554Z,63.13
2023-05-24T00:59:56.690Z,63.57
2023-05-24T01:05:00.021Z,63.47
2023-05-24T01:10:13.485Z,63.87
2023-05-24T01:15:20.880Z,64.26
2023-05-24T01:20:24.419Z,64.83
2023-05-24T01:25:47.004Z,64.76
2023-05-24T01:30:48.767Z,64.94
2023-05-24T01:35:50.233Z,65.13
2023-05-24T01:40:59.239Z,65.67
2023-05-24T01:46:13.730Z,65.65
2023-05-24T01:51:19.505Z,65.49
2023-05-24T01:56:21.859Z,65.74
2023-05-24T02:01:23.887Z,66.11
2023-05-24T02:06:25.493Z,65.70
2023-05-24T02:11:27.705Z,65.97
2023-05-24T02:16:30.709Z,66.55
2023-05-24T02:21:32.717Z,66.73
2023-05-24T02:26:34.183Z,67.01
2023-05-24T02:31:35.877Z,66.73
2023-05-24T02:36:37.501Z,67.34
2023-05-24T02:41:38.970Z,66.96
2023-05-24T02:46:40.563Z,67.56
2023-05-24T02:51:42.136Z,67.70
2023-05-24T02:56:44.085Z,67.73
2023-05-24T03:01:46.415Z,68.13
2023-05-24T03:06:48.302Z,68.29
2023-05-24T03:11:49.786Z,68.15
2023-05-24T03:16:51.661Z,68.25
2023-05-24T03:21:53.121Z,67.89
2023-05-24T03:26:54.562Z,68.21
2023-05-24T03:31:56.200Z,67.89
2023-05-24T03:36:57.683Z,68.56
2023-05-24T03:41:59.270Z,68.50
2023-05-24T03:47:01.382Z,68.15
2023-05-24T03:52:03.277Z,68.42
2023-05-24T03:57:05.003Z,68.59
2023-05-24T04:02:06.791Z,68.70
2023-05-24T04:07:11.776Z,68.51
2023-05-24T04:12:13.389Z,68.52
2023-05-24T04:17:14.938Z,68.87
2023-05-24T04:22:17.644Z,68.69
2023-05-24T04:27:19.111Z,68.32
2023-05-24T04:32:20.593Z,68.00
2023-05-24T04:37:22.071Z,67.50
2023-05-24T04:42:23.537Z,67.18
2023-05-24T04:47:25.915Z,67.04
2023-05-24T04:52:27.804Z,67.57
2023-05-24T04:57:29.467Z,68.10
2023-05-24T05:02:31.233Z,67.37
2023-05-24T05:07:32.740Z,67.53
2023-05-24T05:12:34.217Z,66.93
2023-05-24T05:17:35.707Z,67.58
2023-05-24T05:22:37.356Z,67.16
2023-05-24T05:27:38.803Z,67.53
2023-05-24T05:32:40.671Z,67.11
2023-05-24T05:37:42.419Z,67.09
2023-05-24T05:42:44.261Z,67.41
2023-05-24T05:47:45.831Z,66.75
2023-05-24T05:52:47.401Z,67.36
2023-05-24T05:57:48.989Z,66.77
2023-05-24T06:02:50.755Z,66.45
2023-05-24T06:07:52.380Z,66.07
2023-05-24T06:12:53.950Z,65.03
2023-05-24T06:17:55.650Z,64.24
2023-05-24T06:22:57.475Z,60.24
2023-05-24T06:28:00.178Z,55.62
2023-05-24T06:33:02.725Z,54.82
2023-05-24T06:38:04.349Z,53.13
2023-05-24T06:43:06.473Z,54.27
2023-05-24T06:48:08.148Z,53.84
2023-05-24T06:53:10.524Z,54.50
2023-05-24T06:58:14.573Z,55.10
2023-05-24T07:03:16.598Z,55.98
2023-05-24T07:08:18.428Z,57.17
2023-05-24T07:13:20.159Z,57.05
2023-05-24T07:18:21.787Z,57.57
2023-05-24T07:23:23.372Z,57.51
2023-05-24T07:28:25.120Z,58.01
2023-05-24T07:33:26.762Z,57.11
2023-05-24T07:38:29.335Z,57.06
2023-05-24T07:43:31.081Z,56.84
2023-05-24T07:48:32.857Z,57.73
2023-05-24T07:53:35.082Z,56.68
2023-05-24T07:58:36.759Z,55.61
2023-05-24T08:03:40.316Z,52.01
2023-05-24T08:08:42.051Z,49.53
2023-05-24T08:13:44.747Z,48.12
2023-05-24T08:18:46.735Z,47.63
2023-05-24T08:23:48.442Z,49.65
2023-05-24T08:28:50.433Z,50.05
2023-05-24T08:33:53.811Z,51.15
2023-05-24T08:38:55.852Z,52.32
2023-05-24T08:44:02.327Z,52.38
2023-05-24T08:49:05.247Z,52.24
2023-05-24T08:54:08.093Z,52.08
2023-05-24T08:59:11.404Z,48.38
2023-05-24T09:04:13.697Z,39.45
2023-05-24T09:09:18.714Z,33.73
2023-05-24T09:14:20.812Z,30.29
2023-05-24T09:19:23.102Z,33.35
2023-05-24T09:24:25.363Z,35.86
2023-05-24T09:29:27.276Z,38.65
2023-05-24T09:34:29.132Z,40.18
2023-05-24T09:39:32.180Z,40.88
2023-05-24T09:44:34.203Z,41.26
2023-05-24T09:49:38.992Z,38.93
2023-05-24T09:54:42.068Z,38.95
2023-05-24T09:59:44.999Z,40.09
2023-05-24T10:04:47.864Z,39.54
2023-05-24T10:09:50.096Z,40.43
2023-05-24T10:14:54.798Z,39.37
2023-05-24T10:19:57.812Z,37.70
2023-05-24T10:25:00.365Z,39.37
2023-05-24T10:30:15.493Z,40.56
2023-05-24T10:35:21.289Z,39.77
2023-05-24T10:40:27.165Z,40.10
2023-05-24T10:45:28.938Z,40.14
2023-05-24T10:50:31.201Z,40.83
2023-05-24T10:55:34.561Z,40.22
2023-05-24T11:00:44.915Z,39.47
2023-05-24T11:05:46.976Z,40.17
2023-05-24T11:10:48.918Z,40.68
2023-05-24T11:15:51.871Z,40.72
2023-05-24T11:20:53.917Z,38.69
2023-05-24T11:25:57.382Z,39.01
2023-05-24T11:31:09.551Z,39.45
2023-05-24T11:36:11.445Z,39.47
2023-05-24T11:41:13.360Z,38.74
2023-05-24T11:46:16.384Z,38.33
2023-05-24T11:51:18.068Z,38.69
2023-05-24T11:56:21.627Z,39.27
2023-05-24T12:01:28.455Z,39.14
2023-05-24T12:06:40.034Z,40.08
2023-05-24T12:11:43.066Z,40.42
2023-05-24T12:16:46.509Z,39.95
2023-05-24T12:21:54.139Z,39.86
2023-05-24T12:27:07.852Z,40.37
2023-05-24T12:32:15.435Z,40.74
2023-05-24T12:37:18.583Z,41.03
2023-05-24T12:42:23.874Z,40.67
2023-05-24T12:47:29.102Z,41.17
2023-05-24T12:52:30.770Z,41.10
2023-05-24T12:57:32.560Z,41.71
2023-05-24T13:02:36.919Z,41.11
2023-05-24T13:07:43.104Z,41.86
2023-05-24T13:12:44.916Z,41.22
2023-05-24T13:17:47.577Z,40.93
2023-05-24T13:22:50.715Z,40.83
2023-05-24T13:27:52.886Z,40.86
2023-05-24T13:32:56.085Z,41.20
2023-05-24T13:37:58.617Z,40.18
2023-05-24T13:43:00.317Z,40.44
2023-05-24T13:48:04.324Z,39.42
2023-05-24T13:53:08.038Z,39.82
2023-05-24T13:58:09.692Z,40.61
2023-05-24T14:03:13.157Z,40.16
2023-05-24T14:08:14.804Z,39.45
2023-05-24T14:13:34.297Z,39.91
2023-05-24T14:18:38.442Z,37.90
2023-05-24T14:23:40.314Z,37.40
2023-05-24T14:28:42.168Z,39.68
2023-05-24T14:33:43.915Z,39.93
2023-05-24T14:38:45.492Z,39.66
2023-05-24T14:43:47.067Z,39.33
2023-05-24T14:48:48.711Z,38.87
2023-05-24T14:53:50.672Z,38.38
2023-05-24T14:58:53.260Z,38.36
2023-05-24T15:03:55.882Z,38.48
2023-05-24T15:08:57.864Z,38.23
2023-05-24T15:14:02.417Z,37.79
2023-05-24T15:19:07.623Z,38.17
2023-05-24T15:24:16.745Z,38.24
2023-05-24T15:29:19.286Z,38.32
2023-05-24T15:34:23.695Z,38.59
2023-05-24T15:39:25.550Z,38.45
2023-05-24T15:44:27.004Z,38.87
2023-05-24T15:49:28.506Z,38.83
2023-05-24T15:54:31.949Z,38.77
2023-05-24T15:59:35.374Z,38.98
2023-05-24T16:04:36.833Z,38.89
2023-05-24T16:09:48.609Z,39.01
2023-05-24T16:14:56.836Z,38.85
2023-05-24T16:19:59.196Z,39.42
2023-05-24T16:25:00.749Z,39.75
2023-05-24T16:30:02.245Z,38.80
2023-05-24T16:35:05.169Z,39.38
2023-05-24T16:40:08.781Z,39.74
2023-05-24T16:45:11.389Z,39.44
2023-05-24T16:50:15.784Z,40.10
2023-05-24T16:55:17.304Z,40.83
2023-05-24T17:00:19.122Z,41.16
2023-05-24T17:05:20.650Z,41.19
2023-05-24T17:10:22.140Z,41.06
2023-05-24T17:15:23.784Z,41.59
2023-05-24T17:20:25.298Z,42.21
2023-05-24T17:25:26.874Z,41.84
2023-05-24T17:30:29.465Z,42.01
2023-05-24T17:35:30.929Z,41.56
2023-05-24T17:40:32.401Z,41.61
2023-05-24T17:45:34.049Z,41.74
2023-05-24T17:50:36.354Z,42.28
2023-05-24T17:55:37.914Z,43.01
2023-05-24T18:00:39.375Z,44.00
2023-05-24T18:05:41.670Z,44.61
2023-05-24T18:10:46.139Z,45.32
2023-05-24T18:15:48.735Z,45.66
2023-05-24T18:20:51.926Z,46.38
2023-05-24T18:26:00.237Z,46.27
2023-05-24T18:31:10.237Z,46.28
2023-05-24T18:36:12.778Z,46.36
2023-05-24T18:41:15.029Z,46.07
2023-05-24T18:46:16.644Z,46.31
2023-05-24T18:51:18.576Z,46.57
2023-05-24T18:56:20.041Z,46.67
2023-05-24T19:01:21.576Z,46.79
2023-05-24T19:06:23.587Z,46.35
2023-05-24T19:11:25.028Z,46.47
2023-05-24T19:16:26.572Z,46.56
2023-05-24T19:21:28.048Z,46.83
2023-05-24T19:26:29.557Z,46.66
2023-05-24T19:31:35.676Z,46.76
2023-05-24T19:36:37.290Z,46.61
2023-05-24T19:41:38.784Z,46.54
2023-05-24T19:46:40.321Z,46.35
2023-05-24T19:51:41.821Z,46.81
2023-05-24T19:56:43.374Z,46.82
2023-05-24T20:01:45.578Z,46.82
2023-05-24T20:06:47.125Z,46.97
2023-05-24T20:11:49.026Z,47.39
2023-05-24T20:16:50.651Z,47.85
2023-05-24T20:21:52.123Z,48.16
2023-05-24T20:26:53.643Z,48.24
2023-05-24T20:31:55.126Z,48.59
2023-05-24T20:36:56.594Z,49.17
2023-05-24T20:41:58.679Z,49.03
2023-05-24T20:47:00.177Z,49.70
2023-05-24T20:52:02.016Z,49.92
2023-05-24T20:57:03.645Z,50.08
2023-05-24T21:02:05.263Z,49.95
2023-05-24T21:07:07.936Z,50.49
2023-05-24T21:12:09.511Z,50.71
2023-05-24T21:17:12.663Z,51.25
2023-05-24T21:22:14.193Z,51.60
2023-05-24T21:27:15.738Z,52.33
2023-05-24T21:32:17.195Z,52.10
2023-05-24T21:37:18.637Z,53.21
2023-05-24T21:42:20.128Z,53.10
2023-05-24T21:47:21.669Z,53.76
2023-05-24T21:52:23.426Z,53.45
2023-05-24T21:57:26.524Z,54.49
2023-05-24T22:02:29.074Z,54.36
2023-05-24T22:07:30.865Z,54.48
2023-05-24T22:12:32.597Z,54.99
2023-05-24T22:17:37.189Z,54.97
2023-05-24T22:22:48.191Z,56.46
2023-05-24T22:27:50.386Z,56.05
2023-05-24T22:32:51.997Z,56.28
2023-05-24T22:37:53.464Z,56.71
2023-05-24T22:42:54.985Z,56.92
2023-05-24T22:47:58.483Z,57.37
2023-05-24T22:53:00.099Z,56.84
2023-05-24T22:58:01.886Z,57.25
2023-05-24T23:03:07.849Z,58.09
2023-05-24T23:08:13.503Z,58.44
2023-05-24T23:13:16.871Z,58.59
2023-05-24T23:18:22.288Z,60.13
2023-05-24T23:23:24.921Z,59.71
2023-05-24T23:28:26.588Z,60.10
2023-05-24T23:33:28.125Z,59.96
2023-05-24T23:38:30.385Z,60.58
2023-05-24T23:43:33.004Z,61.04
2023-05-24T23:48:34.494Z,62.13
2023-05-24T23:53:36.327Z,61.61
2023-05-24T23:58:37.895Z,63.08
